createdAt,value
2022-10-28T00:01:55.314Z,10.60
2022-10-28T00:04:22.206Z,10.60
2022-10-28T00:06:48.968Z,10.60
2022-10-28T00:09:18.002Z,10.50
2022-10-28T00:11:44.677Z,10.50
2022-10-28T00:14:11.578Z,10.50
2022-10-28T00:16:38.396Z,10.50
2022-10-28T00:19:07.653Z,10.50
2022-10-28T00:21:37.438Z,10.50
2022-10-28T00:24:04.910Z,10.40
2022-10-28T00:26:38.924Z,10.40
2022-10-28T00:29:10.823Z,10.40
2022-10-28T00:31:40.191Z,10.30
2022-10-28T00:34:13.918Z,10.40
2022-10-28T00:36:42.832Z,10.40
2022-10-28T00:39:13.833Z,10.30
2022-10-28T00:41:45.875Z,10.40
2022-10-28T00:44:30.971Z,10.40
2022-10-28T00:47:00.046Z,10.40
2022-10-28T00:49:32.413Z,10.40
2022-10-28T00:52:10.343Z,10.40
2022-10-28T00:54:38.653Z,10.40
2022-10-28T00:57:12.247Z,10.40
2022-10-28T00:59:48.337Z,10.30
2022-10-28T01:02:15.302Z,10.40
2022-10-28T01:04:46.128Z,10.40
2022-10-28T01:07:13.447Z,10.30
2022-10-28T01:09:43.323Z,10.40
2022-10-28T01:12:53.827Z,10.40
2022-10-28T01:15:49.250Z,10.40
2022-10-28T01:18:40.466Z,10.40
2022-10-28T01:21:25.257Z,10.30
2022-10-28T01:24:33.652Z,10.30
2022-10-28T01:27:42.452Z,10.20
2022-10-28T01:30:35.621Z,10.10
2022-10-28T01:33:18.698Z,10.10
2022-10-28T01:35:55.122Z,10.00
2022-10-28T01:38:37.439Z,10.00
2022-10-28T01:41:31.095Z,10.00
2022-10-28T01:44:19.674Z,10.00
2022-10-28T01:46:57.891Z,10.00
2022-10-28T01:49:34.797Z,10.00
2022-10-28T01:52:05.556Z,10.00
2022-10-28T01:54:34.548Z,10.00
2022-10-28T01:57:09.923Z,10.00
2022-10-28T01:59:40.907Z,10.00
2022-10-28T02:02:07.633Z,10.00
2022-10-28T02:04:36.579Z,10.00
2022-10-28T02:07:04.578Z,10.10
2022-10-28T02:10:04.019Z,10.10
2022-10-28T02:12:38.683Z,10.10
2022-10-28T02:15:25.740Z,10.10
2022-10-28T02:18:10.696Z,10.10
2022-10-28T02:20:55.413Z,10.10
2022-10-28T02:23:27.999Z,10.10
2022-10-28T02:26:35.002Z,10.10
2022-10-28T02:29:27.591Z,10.10
2022-10-28T02:32:03.078Z,10.10
2022-10-28T02:34:41.083Z,10.10
2022-10-28T02:37:16.863Z,10.20
2022-10-28T02:39:52.283Z,10.10
2022-10-28T02:42:24.194Z,10.10
2022-10-28T02:44:57.498Z,10.00
2022-10-28T02:47:34.480Z,10.00
2022-10-28T02:50:10.947Z,10.00
2022-10-28T02:52:44.987Z,10.00
2022-10-28T02:55:13.838Z,9.90
2022-10-28T02:57:48.433Z,9.90
2022-10-28T03:00:20.924Z,10.00
2022-10-28T03:02:47.915Z,10.00
2022-10-28T03:05:17.075Z,10.10
2022-10-28T03:07:44.056Z,10.10
2022-10-28T03:10:15.520Z,10.10
2022-10-28T03:12:46.875Z,10.10
2022-10-28T03:15:13.609Z,10.20
2022-10-28T03:17:40.573Z,10.20
2022-10-28T03:20:07.799Z,10.20
2022-10-28T03:22:37.281Z,10.20
2022-10-28T03:25:04.242Z,10.10
2022-10-28T03:27:33.371Z,10.10
2022-10-28T03:30:02.455Z,10.10
2022-10-28T03:32:31.373Z,10.20
2022-10-28T03:35:02.714Z,10.20
2022-10-28T03:37:29.375Z,10.10
2022-10-28T03:39:56.079Z,10.10
2022-10-28T03:42:24.898Z,10.10
2022-10-28T03:44:53.690Z,10.10
2022-10-28T03:47:20.429Z,10.10
2022-10-28T03:49:49.639Z,10.10
2022-10-28T03:52:18.825Z,10.30
2022-10-28T03:54:45.490Z,10.30
2022-10-28T03:57:12.178Z,10.40
2022-10-28T03:59:43.816Z,10.30
2022-10-28T04:02:15.678Z,10.30
2022-10-28T04:04:42.447Z,10.30
2022-10-28T04:07:09.146Z,10.30
2022-10-28T04:09:38.235Z,10.30
2022-10-28T04:12:07.576Z,10.30
2022-10-28T04:14:36.417Z,10.30
2022-10-28T04:17:05.350Z,10.30
2022-10-28T04:19:34.270Z,10.30
2022-10-28T04:22:01.101Z,10.30
2022-10-28T04:24:27.789Z,10.40
2022-10-28T04:26:54.469Z,10.40
2022-10-28T04:29:26.047Z,10.40
2022-10-28T04:31:52.845Z,10.40
2022-10-28T04:34:19.489Z,10.40
2022-10-28T04:36:51.199Z,10.50
2022-10-28T04:39:20.444Z,10.50
2022-10-28T04:41:49.333Z,10.50
2022-10-28T04:44:15.991Z,10.50
2022-10-28T04:46:44.976Z,10.50
2022-10-28T04:49:11.731Z,10.60
2022-10-28T04:51:38.434Z,10.60
2022-10-28T04:54:05.380Z,10.70
2022-10-28T04:56:34.550Z,10.70
2022-10-28T04:59:01.208Z,10.60
2022-10-28T05:01:27.987Z,10.70
2022-10-28T05:03:54.933Z,10.60
2022-10-28T05:06:21.642Z,10.60
2022-10-28T05:08:50.652Z,10.70
2022-10-28T05:11:19.478Z,10.70
2022-10-28T05:13:53.105Z,10.80
2022-10-28T05:16:20.229Z,10.80
2022-10-28T05:18:47.319Z,10.80
2022-10-28T05:21:16.622Z,10.80
2022-10-28T05:23:47.110Z,10.80
2022-10-28T05:26:14.570Z,10.70
2022-10-28T05:28:50.535Z,10.70
2022-10-28T05:31:20.563Z,10.70
2022-10-28T05:33:49.468Z,10.70
2022-10-28T05:36:18.297Z,10.70
2022-10-28T05:38:47.204Z,10.70
2022-10-28T05:41:16.384Z,10.80
2022-10-28T05:43:43.037Z,10.80
2022-10-28T05:46:10.007Z,10.80
2022-10-28T05:48:38.888Z,10.80
2022-10-28T05:51:05.747Z,10.80
2022-10-28T05:53:32.764Z,10.80
2022-10-28T05:55:59.433Z,10.90
2022-10-28T05:58:26.106Z,10.90
2022-10-28T06:00:52.789Z,10.90
2022-10-28T06:03:19.471Z,10.90
2022-10-28T06:05:50.825Z,10.90
2022-10-28T06:08:20.068Z,10.90
2022-10-28T06:10:55.177Z,10.90
2022-10-28T06:13:24.728Z,10.90
2022-10-28T06:15:55.461Z,10.90
2022-10-28T06:18:23.075Z,10.90
2022-10-28T06:20:51.962Z,11.00
2022-10-28T06:23:24.149Z,11.20
2022-10-28T06:28:33.003Z,11.20
2022-10-28T06:31:07.535Z,11.20
2022-10-28T06:33:36.893Z,11.20
2022-10-28T06:36:06.266Z,11.20
2022-10-28T06:38:32.972Z,11.20
2022-10-28T06:41:02.212Z,11.20
2022-10-28T06:43:29.072Z,11.30
2022-10-28T06:46:00.225Z,11.30
2022-10-28T06:48:28.463Z,11.30
2022-10-28T06:50:56.390Z,11.30
2022-10-28T06:53:23.160Z,11.30
2022-10-28T06:55:54.238Z,11.30
2022-10-28T06:58:21.148Z,11.40
2022-10-28T07:00:47.935Z,11.30
2022-10-28T07:03:19.930Z,11.30
2022-10-28T07:05:50.336Z,11.40
2022-10-28T07:08:19.913Z,11.40
2022-10-28T07:10:57.429Z,11.40
2022-10-28T07:13:27.106Z,11.50
2022-10-28T07:16:00.465Z,11.60
2022-10-28T07:18:31.772Z,11.70
2022-10-28T07:21:04.248Z,11.70
2022-10-28T07:23:32.950Z,11.70
2022-10-28T07:25:59.985Z,11.70
2022-10-28T07:28:29.280Z,11.90
2022-10-28T07:31:06.092Z,12.00
2022-10-28T07:33:34.959Z,12.10
2022-10-28T07:36:04.824Z,12.20
2022-10-28T07:38:32.120Z,12.10
2022-10-28T07:40:58.901Z,12.10
2022-10-28T07:43:28.018Z,12.20
2022-10-28T07:46:00.597Z,12.30
2022-10-28T07:48:29.888Z,12.30
2022-10-28T07:51:02.042Z,12.40
2022-10-28T07:53:29.232Z,12.50
2022-10-28T07:56:02.973Z,12.50
2022-10-28T07:58:30.188Z,12.60
2022-10-28T08:01:03.736Z,12.60
2022-10-28T08:03:38.629Z,12.70
2022-10-28T08:06:13.662Z,12.80
2022-10-28T08:08:45.324Z,12.90
2022-10-28T08:11:16.123Z,13.10
2022-10-28T08:13:45.658Z,13.20
2022-10-28T08:16:12.736Z,13.30
2022-10-28T08:18:39.899Z,13.40
2022-10-28T08:21:08.846Z,13.50
2022-10-28T08:23:36.558Z,13.50
2022-10-28T08:26:03.258Z,13.70
2022-10-28T08:28:30.116Z,13.70
2022-10-28T08:31:08.577Z,13.80
2022-10-28T08:33:37.980Z,13.90
2022-10-28T08:36:05.324Z,14.10
2022-10-28T08:38:34.233Z,14.10
2022-10-28T08:41:00.951Z,14.30
2022-10-28T08:43:52.800Z,14.40
2022-10-28T08:46:54.022Z,14.50
2022-10-28T08:49:23.346Z,14.70
2022-10-28T08:52:41.518Z,14.70
2022-10-28T08:55:15.989Z,14.80
2022-10-28T08:57:50.956Z,14.70
2022-10-28T09:00:27.285Z,14.80
2022-10-28T09:03:12.038Z,14.80
2022-10-28T09:05:51.118Z,14.90
2022-10-28T09:08:28.234Z,15.00
2022-10-28T09:11:15.045Z,15.00
2022-10-28T09:14:08.151Z,15.10
2022-10-28T09:16:48.235Z,15.30
2022-10-28T09:19:33.796Z,15.40
2022-10-28T09:22:23.492Z,15.50
2022-10-28T09:25:03.824Z,15.60
2022-10-28T09:27:33.398Z,15.60
2022-10-28T09:30:18.632Z,15.60
2022-10-28T09:32:54.592Z,15.70
2022-10-28T09:35:26.911Z,15.80
2022-10-28T09:38:03.155Z,15.90
2022-10-28T09:40:32.989Z,16.00
2022-10-28T09:43:28.966Z,16.10
2022-10-28T09:46:17.815Z,16.00
2022-10-28T09:48:50.631Z,16.10
2022-10-28T09:51:38.108Z,16.20
2022-10-28T09:54:04.846Z,16.30
2022-10-28T09:56:31.651Z,16.50
2022-10-28T09:59:07.695Z,16.60
2022-10-28T10:01:42.263Z,16.80
2022-10-28T10:04:21.991Z,17.00
2022-10-28T10:07:00.330Z,17.10
2022-10-28T10:09:32.099Z,17.10
2022-10-28T10:12:12.651Z,17.10
2022-10-28T10:14:51.893Z,17.10
2022-10-28T10:17:21.898Z,17.20
2022-10-28T10:20:12.805Z,17.30
2022-10-28T10:22:44.514Z,17.30
2022-10-28T10:25:24.396Z,17.30
2022-10-28T10:28:03.563Z,17.20
2022-10-28T10:30:32.364Z,17.10
2022-10-28T10:33:02.934Z,17.10
2022-10-28T10:35:31.192Z,17.00
2022-10-28T10:38:04.526Z,17.00
2022-10-28T10:40:34.342Z,17.10
2022-10-28T10:43:20.665Z,17.10
2022-10-28T10:46:02.576Z,17.20
2022-10-28T10:48:32.334Z,17.30
2022-10-28T10:51:04.375Z,17.30
2022-10-28T10:53:35.278Z,17.50
2022-10-28T10:56:08.337Z,17.80
2022-10-28T10:58:40.551Z,18.10
2022-10-28T11:01:09.489Z,18.50
2022-10-28T11:03:36.773Z,18.70
2022-10-28T11:06:36.045Z,18.90
2022-10-28T11:09:03.227Z,18.90
2022-10-28T11:11:34.840Z,18.90
2022-10-28T11:14:10.893Z,18.90
2022-10-28T11:16:49.828Z,18.90
2022-10-28T11:19:41.702Z,19.00
2022-10-28T11:22:17.142Z,19.10
2022-10-28T11:24:58.556Z,19.30
2022-10-28T11:27:40.146Z,19.50
2022-10-28T11:30:13.753Z,19.70
2022-10-28T11:33:08.238Z,19.90
2022-10-28T11:35:54.268Z,20.00
2022-10-28T11:38:20.902Z,20.10
2022-10-28T11:41:11.664Z,20.20
2022-10-28T11:44:05.052Z,20.20
2022-10-28T11:46:35.043Z,20.20
2022-10-28T11:49:07.776Z,20.30
2022-10-28T11:51:40.555Z,20.30
2022-10-28T11:54:33.001Z,20.30
2022-10-28T11:57:08.742Z,20.30
2022-10-28T11:59:56.790Z,20.20
2022-10-28T12:02:35.861Z,20.20
2022-10-28T12:05:20.454Z,20.30
2022-10-28T12:08:05.327Z,20.30
2022-10-28T12:10:50.831Z,20.40
2022-10-28T12:13:43.052Z,20.40
2022-10-28T12:16:30.814Z,20.30
2022-10-28T12:19:05.243Z,20.30
2022-10-28T12:24:05.467Z,20.10
2022-10-28T12:26:46.814Z,20.10
2022-10-28T12:29:23.468Z,20.20
2022-10-28T12:32:16.052Z,20.30
2022-10-28T12:35:08.453Z,20.40
2022-10-28T12:37:47.711Z,20.50
2022-10-28T12:40:46.670Z,20.60
2022-10-28T12:43:52.331Z,20.70
2022-10-28T12:46:30.040Z,20.60
2022-10-28T12:49:05.386Z,20.60
2022-10-28T12:51:40.457Z,20.50
2022-10-28T12:54:23.155Z,20.50
2022-10-28T12:57:20.144Z,20.40
2022-10-28T12:59:59.557Z,20.40
2022-10-28T13:02:36.442Z,20.30
2022-10-28T13:05:08.680Z,20.30
2022-10-28T13:07:35.330Z,20.20
2022-10-28T13:10:50.292Z,20.20
2022-10-28T13:13:41.738Z,20.20
2022-10-28T13:16:42.293Z,20.20
2022-10-28T13:19:42.128Z,20.30
2022-10-28T13:22:32.965Z,20.30
2022-10-28T13:25:08.463Z,20.30
2022-10-28T13:27:37.882Z,20.30
2022-10-28T13:30:06.560Z,20.40
2022-10-28T13:32:38.354Z,20.40
2022-10-28T13:35:26.600Z,20.50
2022-10-28T13:38:01.001Z,20.50
2022-10-28T13:41:00.461Z,20.60
2022-10-28T13:47:24.719Z,20.50
2022-10-28T13:50:09.152Z,20.40
2022-10-28T13:52:47.523Z,20.30
2022-10-28T13:55:14.203Z,20.20
2022-10-28T13:57:46.874Z,20.30
2022-10-28T14:00:20.128Z,20.30
2022-10-28T14:02:52.423Z,20.30
2022-10-28T14:05:45.698Z,20.20
2022-10-28T14:08:39.393Z,20.10
2022-10-28T14:11:22.585Z,20.10
2022-10-28T14:13:58.718Z,20.20
2022-10-28T14:16:29.094Z,20.20
2022-10-28T14:19:10.133Z,20.20
2022-10-28T14:22:01.781Z,20.10
2022-10-28T14:24:41.157Z,20.00
2022-10-28T14:27:15.279Z,19.90
2022-10-28T14:29:50.161Z,19.70
2022-10-28T14:32:54.663Z,19.60
2022-10-28T14:35:32.169Z,19.60
2022-10-28T14:38:13.632Z,19.50
2022-10-28T14:40:52.345Z,19.40
2022-10-28T14:43:29.401Z,19.40
2022-10-28T14:46:04.612Z,19.30
2022-10-28T14:48:44.439Z,19.30
2022-10-28T14:51:18.484Z,19.30
2022-10-28T14:53:48.303Z,19.30
2022-10-28T14:56:27.403Z,19.20
2022-10-28T14:59:29.181Z,19.30
2022-10-28T15:02:07.612Z,19.30
2022-10-28T15:04:34.458Z,19.30
2022-10-28T15:07:04.111Z,19.20
2022-10-28T15:09:32.958Z,19.20
2022-10-28T15:12:03.771Z,19.10
2022-10-28T15:14:32.721Z,19.10
2022-10-28T15:17:04.088Z,19.00
2022-10-28T15:19:38.337Z,18.90
2022-10-28T15:22:33.214Z,18.80
2022-10-28T15:25:04.646Z,18.80
2022-10-28T15:27:36.289Z,18.70
2022-10-28T15:30:13.166Z,18.60
2022-10-28T15:32:39.886Z,18.50
2022-10-28T15:35:30.539Z,18.40
2022-10-28T15:38:01.566Z,18.40
2022-10-28T15:40:39.007Z,18.30
2022-10-28T15:43:26.885Z,18.30
2022-10-28T15:45:53.898Z,18.20
2022-10-28T15:48:30.046Z,18.10
2022-10-28T15:51:19.470Z,18.10
2022-10-28T15:53:56.405Z,18.00
2022-10-28T15:56:26.713Z,17.90
2022-10-28T15:58:59.332Z,17.80
2022-10-28T16:01:35.056Z,17.70
2022-10-28T16:04:22.919Z,17.70
2022-10-28T16:06:58.540Z,17.70
2022-10-28T16:09:37.577Z,17.70
2022-10-28T16:12:19.499Z,17.60
2022-10-28T16:14:56.379Z,17.50
2022-10-28T16:17:27.008Z,17.40
2022-10-28T16:20:17.220Z,17.30
2022-10-28T16:22:45.826Z,17.10
2022-10-28T16:25:17.387Z,17.10
2022-10-28T16:27:44.143Z,17.00
2022-10-28T16:30:11.404Z,17.00
2022-10-28T16:32:40.868Z,17.00
2022-10-28T16:35:21.591Z,16.90
2022-10-28T16:37:55.537Z,16.90
2022-10-28T16:43:16.565Z,16.70
2022-10-28T16:45:45.991Z,16.70
2022-10-28T16:48:14.063Z,16.60
2022-10-28T16:50:42.840Z,16.60
2022-10-28T16:53:12.423Z,16.60
2022-10-28T16:55:39.436Z,16.60
2022-10-28T16:58:06.443Z,16.60
2022-10-28T17:00:38.665Z,16.50
2022-10-28T17:03:06.324Z,16.40
2022-10-28T17:05:33.569Z,16.40
2022-10-28T17:08:01.690Z,16.30
2022-10-28T17:10:36.358Z,16.30
2022-10-28T17:13:06.974Z,16.20
2022-10-28T17:15:36.301Z,16.20
2022-10-28T17:18:07.692Z,16.10
2022-10-28T17:20:34.479Z,16.00
2022-10-28T17:23:01.233Z,16.00
2022-10-28T17:25:28.225Z,16.00
2022-10-28T17:27:57.873Z,16.00
2022-10-28T17:30:24.873Z,15.90
2022-10-28T17:32:55.970Z,15.90
2022-10-28T17:35:25.245Z,15.80
2022-10-28T17:37:52.362Z,15.80
2022-10-28T17:40:19.407Z,15.80
2022-10-28T17:42:46.213Z,15.70
2022-10-28T17:45:16.498Z,15.60
2022-10-28T17:47:46.123Z,15.50
2022-10-28T17:50:12.827Z,15.40
2022-10-28T17:52:39.565Z,15.40
2022-10-28T17:55:06.907Z,15.30
2022-10-28T17:57:35.800Z,15.30
2022-10-28T18:00:03.273Z,15.20
2022-10-28T18:02:32.185Z,15.20
2022-10-28T18:04:58.919Z,15.10
2022-10-28T18:07:28.181Z,15.20
2022-10-28T18:09:57.307Z,15.20
2022-10-28T18:12:23.994Z,15.10
2022-10-28T18:14:50.678Z,15.00
2022-10-28T18:17:19.959Z,15.00
2022-10-28T18:19:49.157Z,15.00
2022-10-28T18:22:15.927Z,14.90
2022-10-28T18:24:42.859Z,14.80
2022-10-28T18:27:09.530Z,14.70
2022-10-28T18:29:38.977Z,14.70
2022-10-28T18:32:05.701Z,14.60
2022-10-28T18:34:32.699Z,14.60
2022-10-28T18:36:59.524Z,14.50
2022-10-28T18:39:28.684Z,14.40
2022-10-28T18:41:57.840Z,14.40
2022-10-28T18:44:31.817Z,14.40
2022-10-28T18:47:01.320Z,14.40
2022-10-28T18:49:28.075Z,14.40
2022-10-28T18:51:54.897Z,14.40
2022-10-28T18:54:23.839Z,14.30
2022-10-28T18:56:53.708Z,14.30
2022-10-28T18:59:23.443Z,14.30
2022-10-28T19:01:52.639Z,14.30
2022-10-28T19:04:19.414Z,14.30
2022-10-28T19:06:48.351Z,14.30
2022-10-28T19:09:17.590Z,14.30
2022-10-28T19:11:44.283Z,14.30
2022-10-28T19:14:11.081Z,14.30
2022-10-28T19:16:40.296Z,14.20
2022-10-28T19:19:07.638Z,14.20
2022-10-28T19:21:34.765Z,14.10
2022-10-28T19:24:01.793Z,14.00
2022-10-28T19:26:28.667Z,14.00
2022-10-28T19:28:55.504Z,13.90
2022-10-28T19:31:24.480Z,13.90
2022-10-28T19:33:56.989Z,13.80
2022-10-28T19:36:29.323Z,13.80
2022-10-28T19:38:59.794Z,13.70
2022-10-28T19:41:31.828Z,13.80
2022-10-28T19:44:00.841Z,13.70
2022-10-28T19:46:29.157Z,13.70
2022-10-28T19:48:59.241Z,13.70
2022-10-28T19:51:30.526Z,13.60
2022-10-28T19:53:59.447Z,13.50
2022-10-28T19:56:27.744Z,13.50
2022-10-28T19:58:59.605Z,13.40
2022-10-28T20:01:28.452Z,13.40
2022-10-28T20:03:56.079Z,13.30
2022-10-28T20:06:31.079Z,13.30
2022-10-28T20:09:00.561Z,13.30
2022-10-28T20:11:32.656Z,13.30
2022-10-28T20:14:04.331Z,13.30
2022-10-28T20:16:32.486Z,13.30
2022-10-28T20:19:04.804Z,13.30
2022-10-28T20:21:34.787Z,13.30
2022-10-28T20:24:04.326Z,13.30
2022-10-28T20:26:35.415Z,13.20
2022-10-28T20:29:02.999Z,13.20
2022-10-28T20:31:34.172Z,13.20
2022-10-28T20:34:05.597Z,13.10
2022-10-28T20:36:39.053Z,13.00
2022-10-28T20:39:06.724Z,12.90
2022-10-28T20:41:40.393Z,12.90
2022-10-28T20:44:08.202Z,12.80
2022-10-28T20:46:40.127Z,12.80
2022-10-28T20:49:09.843Z,12.80
2022-10-28T20:51:41.585Z,12.80
2022-10-28T20:54:08.720Z,12.70
2022-10-28T20:56:40.296Z,12.70
2022-10-28T20:59:07.233Z,12.70
2022-10-28T21:01:39.309Z,12.70
2022-10-28T21:04:12.469Z,12.60
2022-10-28T21:06:42.023Z,12.50
2022-10-28T21:09:13.447Z,12.50
2022-10-28T21:11:40.261Z,12.40
2022-10-28T21:14:07.089Z,12.40
2022-10-28T21:16:33.926Z,12.40
2022-10-28T21:19:00.927Z,12.30
2022-10-28T21:21:31.542Z,12.30
2022-10-28T21:24:00.576Z,12.30
2022-10-28T21:26:29.559Z,12.30
2022-10-28T21:29:01.008Z,12.30
2022-10-28T21:31:30.076Z,12.30
2022-10-28T21:34:01.744Z,12.30
2022-10-28T21:36:33.619Z,12.30
2022-10-28T21:39:00.392Z,12.30
2022-10-28T21:41:29.446Z,12.20
2022-10-28T21:43:58.619Z,12.20
2022-10-28T21:46:27.984Z,12.20
2022-10-28T21:48:57.164Z,12.20
2022-10-28T21:51:23.961Z,12.10
2022-10-28T21:53:53.149Z,12.00
2022-10-28T21:56:20.235Z,11.90
2022-10-28T21:58:49.042Z,11.90
2022-10-28T22:01:17.229Z,11.90
2022-10-28T22:03:44.046Z,11.90
2022-10-28T22:06:13.759Z,11.90
2022-10-28T22:08:42.910Z,12.00
2022-10-28T22:11:21.333Z,12.00
2022-10-28T22:13:55.318Z,11.90
2022-10-28T22:16:22.000Z,11.90
2022-10-28T22:18:48.714Z,11.80
2022-10-28T22:21:27.041Z,11.80
2022-10-28T22:23:56.319Z,11.80
2022-10-28T22:26:28.530Z,11.80
2022-10-28T22:28:57.780Z,11.70
2022-10-28T22:31:36.188Z,11.70
2022-10-28T22:34:05.597Z,11.70
2022-10-28T22:36:37.008Z,11.70
2022-10-28T22:39:03.751Z,11.70
2022-10-28T22:41:32.088Z,11.70
2022-10-28T22:44:02.408Z,11.60
2022-10-28T22:46:33.553Z,11.70
2022-10-28T22:49:00.434Z,11.80
2022-10-28T22:51:29.395Z,11.70
2022-10-28T22:53:58.555Z,11.70
2022-10-28T22:56:29.974Z,11.70
2022-10-28T22:58:59.033Z,11.60
2022-10-28T23:01:27.524Z,11.70
2022-10-28T23:03:58.325Z,11.60
2022-10-28T23:06:27.114Z,11.70
2022-10-28T23:08:56.533Z,11.60
2022-10-28T23:11:26.468Z,11.60
2022-10-28T23:13:54.890Z,11.60
2022-10-28T23:16:23.460Z,11.50
2022-10-28T23:18:50.283Z,11.50
2022-10-28T23:21:20.701Z,11.50
2022-10-28T23:24:01.321Z,11.40
2022-10-28T23:26:29.641Z,11.40
2022-10-28T23:29:01.588Z,11.40
2022-10-28T23:31:28.298Z,11.30
2022-10-28T23:33:55.552Z,11.30
2022-10-28T23:36:23.060Z,11.30
2022-10-28T23:38:54.398Z,11.40
2022-10-28T23:41:21.239Z,11.40
2022-10-28T23:43:49.301Z,11.40
2022-10-28T23:46:18.750Z,11.30
2022-10-28T23:48:45.571Z,11.30
2022-10-28T23:51:14.722Z,11.30
2022-10-28T23:53:41.372Z,11.20
2022-10-28T23:56:12.595Z,11.20
2022-10-28T23:58:41.379Z,11.20
